Time;durP1;ratioP1;P1;durP2;ratioP2;P2;SDS_P1;SDS_P2;PMS_P1;PMS_P2;Temp;Humidity;BMP_temperature;BMP_pressure;BME280_temperature;BME280_humidity;BME280_pressure;Samples;Min_cycle;Max_cycle;Signal;HPM_P1;HPM_P2
2024/01/08 00:00:28;;;;;;;18.58;7.90;;;;;;;-2.90;100.00;102844.56;5057531;28;20028;-76
2024/01/08 00:02:54;;;;;;;19.23;8.02;;;;;;;-2.93;100.00;102854.63;5067223;28;20449;-76
2024/01/08 00:05:19;;;;;;;18.30;7.63;;;;;;;-2.91;100.00;102847.94;5065029;28;20052;-77
2024/01/08 00:07:44;;;;;;;19.55;8.13;;;;;;;-2.87;100.00;102849.09;5067928;28;20033;-77
2024/01/08 00:10:10;;;;;;;19.77;8.10;;;;;;;-2.92;100.00;102840.94;5064693;28;20120;-77
2024/01/08 00:12:35;;;;;;;19.02;7.85;;;;;;;-2.88;100.00;102840.44;5050068;28;20025;-77
2024/01/08 00:15:01;;;;;;;18.98;7.97;;;;;;;-2.88;100.00;102853.38;5060153;28;20082;-77
2024/01/08 00:17:26;;;;;;;19.23;8.05;;;;;;;-2.87;100.00;102852.63;5065876;28;20033;-76
2024/01/08 00:19:51;;;;;;;20.08;8.73;;;;;;;-2.86;100.00;102845.75;5067003;28;20498;-76
2024/01/08 00:22:17;;;;;;;20.60;8.70;;;;;;;-2.88;100.00;102848.22;5064619;28;20032;-76
2024/01/08 00:24:42;;;;;;;18.95;7.70;;;;;;;-2.89;100.00;102861.91;5067914;28;20092;-76
2024/01/08 00:27:07;;;;;;;18.58;7.53;;;;;;;-2.89;100.00;102855.84;5064552;28;20425;-76
2024/01/08 00:29:33;;;;;;;18.63;7.50;;;;;;;-2.86;100.00;102854.41;5066496;28;20033;-76
2024/01/08 00:31:58;;;;;;;18.80;7.90;;;;;;;-2.85;100.00;102848.47;5065652;28;20564;-76
2024/01/08 00:34:27;;;;;;;19.23;8.13;;;;;;;-2.85;100.00;102852.75;5053219;28;20047;-76
2024/01/08 00:36:52;;;;;;;19.10;7.80;;;;;;;-2.82;100.00;102853.03;5067008;28;20476;-76
2024/01/08 00:39:18;;;;;;;18.92;7.93;;;;;;;-2.83;100.00;102858.97;5051379;28;20091;-76
2024/01/08 00:41:43;;;;;;;21.17;10.15;;;;;;;-2.76;100.00;102857.88;5057690;28;20086;-76
2024/01/08 00:44:08;;;;;;;22.40;11.57;;;;;;;-2.79;100.00;102850.72;5067471;28;20527;-76
2024/01/08 00:46:34;;;;;;;23.30;12.57;;;;;;;-2.78;100.00;102856.78;5064770;28;20074;-76
2024/01/08 00:48:59;;;;;;;23.17;11.70;;;;;;;-2.82;100.00;102858.22;5054295;28;20035;-76
2024/01/08 00:51:24;;;;;;;22.70;11.80;;;;;;;-2.79;100.00;102855.00;5066221;28;20475;-76
2024/01/08 00:53:51;;;;;;;24.00;13.38;;;;;;;-2.79;100.00;102847.22;5064245;28;20029;-76
2024/01/08 00:56:17;;;;;;;24.77;14.38;;;;;;;-2.78;100.00;102849.97;5066994;28;20081;-76
2024/01/08 00:58:43;;;;;;;25.02;14.13;;;;;;;-2.82;100.00;102860.81;5050294;28;20029;-76
2024/01/08 01:01:10;;;;;;;26.48;15.40;;;;;;;-2.82;100.00;102851.34;5066497;28;20056;-76
2024/01/08 01:03:35;;;;;;;28.42;16.88;;;;;;;-2.79;100.00;102855.91;5064600;28;20032;-76
2024/01/08 01:06:01;;;;;;;28.40;17.35;;;;;;;-2.79;100.00;102850.72;5048432;28;20187;-76
2024/01/08 01:08:26;;;;;;;29.17;17.13;;;;;;;-2.78;100.00;102859.38;5059191;28;20032;-76
2024/01/08 01:10:51;;;;;;;30.15;18.10;;;;;;;-2.79;100.00;102855.00;5051445;28;20111;-75
2024/01/08 01:13:17;;;;;;;28.20;16.67;;;;;;;-2.77;100.00;102854.34;5066656;28;20024;-76
2024/01/08 01:15:42;;;;;;;27.75;16.65;;;;;;;-2.75;100.00;102851.88;5063222;28;20033;-75
2024/01/08 01:18:08;;;;;;;28.77;17.80;;;;;;;-2.70;100.00;102866.19;5049170;28;20079;-75
2024/01/08 01:20:33;;;;;;;30.52;19.23;;;;;;;-2.72;100.00;102857.34;5059025;28;20029;-75
2024/01/08 01:22:58;;;;;;;29.42;17.92;;;;;;;-2.72;100.00;102858.28;5064739;28;20025;-75
2024/01/08 01:25:24;;;;;;;30.00;19.27;;;;;;;-2.74;100.00;102858.91;5054989;28;20543;-75
2024/01/08 01:27:49;;;;;;;30.25;18.65;;;;;;;-2.79;100.00;102860.19;5066418;28;20461;-76
2024/01/08 01:30:15;;;;;;;26.58;15.40;;;;;;;-2.83;100.00;102859.88;5048391;28;20388;-76
2024/01/08 01:32:40;;;;;;;24.23;13.48;;;;;;;-2.82;100.00;102858.22;5045063;28;20087;-76
2024/01/08 01:35:06;;;;;;;23.98;13.05;;;;;;;-2.79;100.00;102855.00;5065443;28;20104;-76
2024/01/08 01:37:31;;;;;;;24.73;12.77;;;;;;;-2.77;100.00;102854.34;5064163;28;20078;-76
2024/01/08 01:39:57;;;;;;;23.10;12.38;;;;;;;-2.82;100.00;102856.53;5047178;28;20045;-76
2024/01/08 01:42:22;;;;;;;23.38;12.32;;;;;;;-2.83;100.00;102859.88;5051069;28;20025;-76
2024/01/08 01:44:47;;;;;;;24.10;12.68;;;;;;;-2.83;100.00;102849.50;5066202;28;20476;-76
2024/01/08 01:47:14;;;;;;;22.67;12.35;;;;;;;-2.91;100.00;102860.88;5062710;28;20051;-76
2024/01/08 01:49:40;;;;;;;23.25;12.32;;;;;;;-3.02;100.00;102856.38;5065465;28;20064;-76
2024/01/08 01:52:07;;;;;;;23.50;12.60;;;;;;;-3.06;100.00;102859.47;5063610;28;20028;-76
2024/01/08 01:54:33;;;;;;;23.05;12.18;;;;;;;-3.09;100.00;102859.19;5046717;28;20119;-75
2024/01/08 01:57:01;;;;;;;21.90;11.43;;;;;;;-3.14;100.00;102863.03;5064247;28;20086;-75
2024/01/08 01:59:29;;;;;;;22.98;11.60;;;;;;;-3.12;100.00;102858.91;5063804;28;20017;-75
2024/01/08 02:01:56;;;;;;;22.27;12.18;;;;;;;-3.09;100.00;102859.19;5064977;28;20033;-75
2024/01/08 02:04:25;;;;;;;21.73;11.57;;;;;;;-3.03;100.00;102870.09;5050619;28;20506;-75
2024/01/08 02:06:51;;;;;;;22.30;11.18;;;;;;;-3.04;100.00;102870.88;5065320;28;20440;-75
2024/01/08 02:09:16;;;;;;;21.38;11.07;;;;;;;-2.99;100.00;102867.91;5044429;28;20131;-75
2024/01/08 02:11:43;;;;;;;21.30;10.82;;;;;;;-2.95;100.00;102868.22;5065557;28;20115;-75
2024/01/08 02:14:10;;;;;;;21.42;10.75;;;;;;;-2.87;100.00;102869.81;5062576;28;20029;-75
2024/01/08 02:16:35;;;;;;;21.77;10.98;;;;;;;-2.87;100.00;102875.00;5064728;28;20096;-75
2024/01/08 02:19:01;;;;;;;20.80;10.35;;;;;;;-2.87;100.00;102873.34;5063704;28;20105;-75
2024/01/08 02:21:26;;;;;;;20.88;10.13;;;;;;;-2.87;100.00;102873.34;5062905;28;20416;-75
2024/01/08 02:23:52;;;;;;;20.15;9.57;;;;;;;-2.89;100.00;102874.84;5064427;28;20405;-75
2024/01/08 02:26:18;;;;;;;20.30;9.50;;;;;;;-2.95;100.00;102876.00;5061771;28;20033;-75
2024/01/08 02:28:43;;;;;;;19.58;9.13;;;;;;;-3.06;100.00;102875.00;5065457;28;20023;-75
2024/01/08 02:31:09;;;;;;;19.73;8.80;;;;;;;-3.09;100.00;102877.31;5062242;28;20032;-75
2024/01/08 02:33:34;;;;;;;19.75;8.73;;;;;;;-3.24;100.00;102882.88;5063904;28;20106;-75
2024/01/08 02:36:00;;;;;;;18.90;8.27;;;;;;;-3.36;100.00;102879.16;5063698;28;20078;-75
2024/01/08 02:38:25;;;;;;;19.08;7.97;;;;;;;-3.43;100.00;102876.78;5062690;28;20060;-75
2024/01/08 02:40:50;;;;;;;18.92;8.05;;;;;;;-3.59;100.00;102875.31;5064567;28;20543;-75
2024/01/08 02:43:16;;;;;;;18.55;7.60;;;;;;;-3.66;100.00;102878.09;5044404;28;20373;-75
2024/01/08 02:45:41;;;;;;;19.27;8.20;;;;;;;-3.74;100.00;102876.44;5048055;28;20411;-75
2024/01/08 02:48:07;;;;;;;19.13;7.75;;;;;;;-3.81;100.00;102897.34;5064300;28;20034;-75
2024/01/08 02:50:33;;;;;;;19.60;8.15;;;;;;;-3.85;100.00;102891.84;5062943;28;20033;-74
2024/01/08 02:52:58;;;;;;;19.65;8.10;;;;;;;-3.89;100.00;102888.84;5062719;28;20083;-75
2024/01/08 02:55:23;;;;;;;19.90;8.32;;;;;;;-3.91;100.00;102895.53;5064022;28;20032;-75
2024/01/08 02:57:49;;;;;;;19.92;7.97;;;;;;;-3.92;100.00;102902.38;5061555;28;20029;-75
2024/01/08 03:00:15;;;;;;;20.33;8.50;;;;;;;-3.90;100.00;102892.22;5064667;28;20031;-74
2024/01/08 03:02:40;;;;;;;19.17;8.25;;;;;;;-3.99;100.00;102893.88;5061694;28;20031;-75
2024/01/08 03:05:05;;;;;;;19.92;8.50;;;;;;;-3.96;100.00;102902.88;5063831;28;20377;-74
2024/01/08 03:07:31;;;;;;;19.40;8.18;;;;;;;-3.99;100.00;102905.16;5062782;28;20052;-74
2024/01/08 03:09:58;;;;;;;20.00;8.30;;;;;;;-4.02;100.00;102897.09;5062393;28;20094;-75
2024/01/08 03:12:24;;;;;;;19.55;8.35;;;;;;;-4.04;100.00;102909.84;5055124;28;20028;-75
2024/01/08 03:14:50;;;;;;;20.25;8.27;;;;;;;-4.06;100.00;102900.16;5046261;28;20541;-74
2024/01/08 03:17:15;;;;;;;20.27;8.27;;;;;;;-4.14;100.00;102901.06;5061311;28;20036;-75
2024/01/08 03:19:40;;;;;;;19.98;8.68;;;;;;;-4.14;100.00;102891.66;5064043;28;20028;-75
2024/01/08 03:22:06;;;;;;;20.15;8.68;;;;;;;-4.10;100.00;102893.75;5061964;28;20048;-75
2024/01/08 03:24:31;;;;;;;20.50;8.68;;;;;;;-4.01;100.00;102898.91;5063113;28;20108;-75
2024/01/08 03:26:57;;;;;;;20.02;8.52;;;;;;;-3.96;100.00;102889.94;5045146;28;20024;-75
2024/01/08 03:29:23;;;;;;;20.30;8.48;;;;;;;-3.93;100.00;102897.97;5061300;28;20033;-75
2024/01/08 03:31:48;;;;;;;20.40;8.98;;;;;;;-3.90;100.00;102898.28;5046338;28;20442;-75
2024/01/08 03:34:14;;;;;;;20.40;8.73;;;;;;;-3.88;100.00;102901.91;5060943;28;20021;-75
2024/01/08 03:36:47;;;;;;;20.27;8.60;;;;;;;-3.79;100.00;102898.38;5063581;28;20032;-75
2024/01/08 03:39:13;;;;;;;19.88;8.43;;;;;;;-3.68;100.00;102900.31;5061000;28;20534;-75
2024/01/08 03:41:42;;;;;;;20.77;8.48;;;;;;;-3.65;100.00;102902.28;5063469;28;20068;-75
2024/01/08 03:44:08;;;;;;;20.40;8.63;;;;;;;-3.61;100.00;102902.72;5061441;28;20115;-75
2024/01/08 03:46:34;;;;;;;19.83;8.70;;;;;;;-3.60;100.00;102904.53;5063041;28;20033;-75
2024/01/08 03:49:00;;;;;;;20.63;8.68;;;;;;;-3.56;100.00;102906.63;5062361;28;20031;-75
2024/01/08 03:51:26;;;;;;;21.15;9.00;;;;;;;-3.58;100.00;102908.19;5044404;28;20036;-75
2024/01/08 03:53:53;;;;;;;20.30;8.60;;;;;;;-3.54;100.00;102899.94;5056876;28;20040;-75
2024/01/08 03:56:18;;;;;;;20.23;8.40;;;;;;;-3.53;100.00;102906.03;5060863;28;20029;-75
2024/01/08 03:58:43;;;;;;;20.70;8.80;;;;;;;-3.53;100.00;102906.91;5063956;28;20537;-75
2024/01/08 04:01:09;;;;;;;20.77;8.73;;;;;;;-3.52;100.00;102907.84;5054504;28;20072;-75
2024/01/08 04:03:34;;;;;;;20.10;8.70;;;;;;;-3.43;100.00;102903.53;5061788;28;20021;-75
2024/01/08 04:05:59;;;;;;;21.08;8.63;;;;;;;-3.44;100.00;102906.88;5044770;28;20132;-75
2024/01/08 04:08:25;;;;;;;20.35;8.93;;;;;;;-3.41;100.00;102907.16;5056444;28;20037;-75
2024/01/08 04:10:50;;;;;;;19.80;8.32;;;;;;;-3.39;100.00;102907.34;5060826;28;20040;-75
2024/01/08 04:13:15;;;;;;;20.52;8.88;;;;;;;-3.37;100.00;102901.50;5064035;28;20101;-75
2024/01/08 04:15:41;;;;;;;20.23;8.60;;;;;;;-3.32;100.00;102904.53;5060804;28;20159;-75
2024/01/08 04:18:06;;;;;;;20.73;8.73;;;;;;;-3.30;100.00;102910.78;5062750;28;20033;-75
2024/01/08 04:20:32;;;;;;;20.20;8.50;;;;;;;-3.29;100.00;102903.91;5062182;28;20518;-75
2024/01/08 04:22:57;;;;;;;20.45;8.55;;;;;;;-3.29;100.00;102901.31;5061420;28;20116;-75
2024/01/08 04:25:23;;;;;;;20.73;8.15;;;;;;;-3.28;100.00;102900.56;5063049;28;20116;-75
2024/01/08 04:27:48;;;;;;;19.90;8.57;;;;;;;-3.30;100.00;102900.41;5060434;28;20083;-75
2024/01/08 04:30:14;;;;;;;19.88;8.48;;;;;;;-3.26;100.00;102905.13;5063588;28;20064;-75
2024/01/08 04:32:39;;;;;;;20.77;8.38;;;;;;;-3.25;100.00;102906.91;5060733;28;20081;-75
2024/01/08 04:35:05;;;;;;;19.40;7.80;;;;;;;-3.25;100.00;102908.59;5062585;28;20036;-75
2024/01/08 04:37:31;;;;;;;20.67;8.40;;;;;;;-3.26;100.00;102902.53;5061996;28;20031;-75
2024/01/08 04:39:56;;;;;;;20.38;8.43;;;;;;;-3.23;100.00;102901.88;5061099;28;20115;-75
2024/01/08 04:42:21;;;;;;;20.38;8.57;;;;;;;-3.17;100.00;102908.56;5063331;28;20377;-75
2024/01/08 04:44:47;;;;;;;19.80;7.90;;;;;;;-3.21;100.00;102901.25;5046965;28;20053;-75
2024/01/08 04:47:12;;;;;;;19.90;8.30;;;;;;;-3.23;100.00;102902.81;5067124;28;20025;-75
2024/01/08 04:49:39;;;;;;;19.23;8.20;;;;;;;-3.14;100.00;102907.94;5064457;28;20036;-75
2024/01/08 04:52:04;;;;;;;19.77;8.10;;;;;;;-3.16;100.00;102907.78;5054940;28;20029;-75
2024/01/08 04:54:30;;;;;;;19.63;8.10;;;;;;;-3.20;100.00;102903.09;5066067;28;20093;-75
2024/01/08 04:56:55;;;;;;;20.05;8.27;;;;;;;-3.19;100.00;102904.00;5047234;28;20427;-75
2024/01/08 04:59:23;;;;;;;19.48;7.80;;;;;;;-3.19;100.00;102906.59;5045720;28;20029;-75
2024/01/08 05:01:49;;;;;;;19.67;7.93;;;;;;;-3.20;100.00;102910.84;5059557;28;20025;-75
2024/01/08 05:04:15;;;;;;;20.00;8.27;;;;;;;-3.16;100.00;102912.03;5063036;28;20032;-75
2024/01/08 05:06:42;;;;;;;21.10;8.32;;;;;;;-3.13;100.00;102904.59;5046037;28;20526;-75
2024/01/08 05:09:08;;;;;;;20.10;8.00;;;;;;;-3.13;100.00;102906.25;5061744;28;20066;-74
2024/01/08 05:11:34;;;;;;;20.27;8.10;;;;;;;-3.13;100.00;102908.84;5064712;28;20107;-74
2024/01/08 05:13:59;;;;;;;19.60;8.30;;;;;;;-3.09;100.00;102904.06;5064748;28;20125;-75
2024/01/08 05:16:24;;;;;;;19.90;8.13;;;;;;;-3.13;100.00;102899.41;5066150;28;20032;-75
2024/01/08 05:18:50;;;;;;;19.88;8.48;;;;;;;-3.12;100.00;102903.78;5063233;28;20079;-75
2024/01/08 05:21:15;;;;;;;20.77;8.50;;;;;;;-3.10;100.00;102896.16;5066580;28;20441;-75
2024/01/08 05:23:41;;;;;;;19.80;8.10;;;;;;;-3.10;100.00;102901.34;5063701;28;20384;-75
2024/01/08 05:26:07;;;;;;;20.08;8.75;;;;;;;-3.08;100.00;102892.06;5065355;28;20029;-74
2024/01/08 05:28:33;;;;;;;20.05;8.32;;;;;;;-3.07;100.00;102904.22;5046709;28;20078;-77
2024/01/08 05:30:58;;;;;;;20.45;8.80;;;;;;;-3.09;100.00;102905.78;5064307;28;20033;-74
2024/01/08 05:33:25;;;;;;;20.40;8.48;;;;;;;-3.06;100.00;102901.81;5065712;28;20083;-74
2024/01/08 05:35:51;;;;;;;20.40;8.82;;;;;;;-3.07;100.00;102893.88;5050298;28;20029;-74
2024/01/08 05:38:16;;;;;;;20.20;8.70;;;;;;;-3.06;100.00;102900.88;5066465;28;20036;-74
2024/01/08 05:40:41;;;;;;;21.30;8.90;;;;;;;-3.11;100.00;102900.44;5063150;28;20032;-74
2024/01/08 05:43:07;;;;;;;20.02;8.73;;;;;;;-3.11;100.00;102902.13;5065487;28;20090;-75
2024/01/08 05:45:32;;;;;;;20.20;9.00;;;;;;;-3.13;100.00;102894.25;5064423;28;20391;-74
2024/01/08 05:47:57;;;;;;;21.45;9.70;;;;;;;-3.11;100.00;102896.97;5063637;28;20025;-74
2024/01/08 05:50:27;;;;;;;21.15;9.30;;;;;;;-3.08;100.00;102897.25;5065688;28;20075;-75
2024/01/08 05:52:53;;;;;;;22.30;10.00;;;;;;;-3.07;100.00;102899.97;5050168;28;20052;-74
2024/01/08 05:55:18;;;;;;;21.70;9.52;;;;;;;-3.03;100.00;102890.78;5066214;28;20024;-75
2024/01/08 05:57:44;;;;;;;21.20;9.63;;;;;;;-3.02;100.00;102897.81;5055308;28;20020;-75
2024/01/08 06:00:10;;;;;;;21.55;10.00;;;;;;;-3.05;100.00;102900.13;5063160;28;20540;-75
2024/01/08 06:02:35;;;;;;;24.15;13.52;;;;;;;-3.02;100.00;102902.97;5064369;28;20488;-75
2024/01/08 06:05:00;;;;;;;21.70;10.50;;;;;;;-3.01;100.00;102900.53;5064423;28;20060;-75
2024/01/08 06:07:26;;;;;;;22.75;11.45;;;;;;;-2.99;100.00;102903.25;5063326;28;20060;-75
2024/01/08 06:09:51;;;;;;;22.23;11.07;;;;;;;-2.95;100.00;102904.47;5065648;28;20028;-75
2024/01/08 06:12:17;;;;;;;26.00;14.55;;;;;;;-2.97;100.00;102901.75;5062514;28;20439;-75
2024/01/08 06:14:42;;;;;;;22.30;10.85;;;;;;;-2.96;100.00;102906.13;5065154;28;20427;-75
2024/01/08 06:17:09;;;;;;;21.42;10.65;;;;;;;-2.96;100.00;102900.03;5063259;28;20033;-75
2024/01/08 06:19:34;;;;;;;21.77;10.30;;;;;;;-2.98;100.00;102902.50;5064061;28;20045;-75
2024/01/08 06:22:00;;;;;;;21.58;10.23;;;;;;;-2.95;100.00;102894.13;5064087;28;20067;-75
2024/01/08 06:24:25;;;;;;;22.35;10.95;;;;;;;-2.94;100.00;102902.03;5062800;28;20033;-75
2024/01/08 06:26:51;;;;;;;21.90;10.55;;;;;;;-2.98;100.00;102894.72;5065450;28;20078;-75
2024/01/08 06:29:16;;;;;;;22.80;10.90;;;;;;;-2.96;100.00;102892.28;5061825;28;20454;-76
2024/01/08 06:31:42;;;;;;;22.02;11.27;;;;;;;-2.91;100.00;102897.13;5064987;28;20053;-75
2024/01/08 06:34:08;;;;;;;22.77;11.75;;;;;;;-2.95;100.00;102899.28;5063269;28;20033;-76
2024/01/08 06:36:34;;;;;;;23.35;13.68;;;;;;;-2.91;100.00;102891.94;5063434;28;20039;-76
2024/01/08 06:39:00;;;;;;;23.10;12.45;;;;;;;-2.90;100.00;102898.00;5064007;28;20475;-75
2024/01/08 06:41:25;;;;;;;23.38;11.95;;;;;;;-2.86;100.00;102890.66;5062186;28;20029;-75
2024/01/08 06:43:50;;;;;;;23.67;11.80;;;;;;;-2.83;100.00;102895.22;5065098;28;20060;-76
2024/01/08 06:46:18;;;;;;;22.90;12.18;;;;;;;-2.89;100.00;102889.50;5048198;28;20044;-75
2024/01/08 06:48:43;;;;;;;24.10;12.40;;;;;;;-2.88;100.00;102894.81;5064556;28;20071;-76
2024/01/08 06:51:08;;;;;;;23.75;13.90;;;;;;;-2.87;100.00;102896.63;5062540;28;20040;-76
2024/01/08 06:53:34;;;;;;;24.02;13.35;;;;;;;-2.85;100.00;102902.84;5063369;28;20487;-77
2024/01/08 06:55:59;;;;;;;23.98;13.43;;;;;;;-2.81;100.00;102893.66;5045561;28;20063;-76
2024/01/08 06:58:25;;;;;;;23.52;11.63;;;;;;;-2.78;100.00;102895.63;5049663;28;20369;-77
2024/01/08 07:00:50;;;;;;;23.10;11.82;;;;;;;-2.75;100.00;102891.66;5065128;28;20032;-76
2024/01/08 07:03:17;;;;;;;23.13;11.68;;;;;;;-2.74;100.00;102892.56;5061257;28;20515;-76
2024/01/08 07:05:43;;;;;;;23.15;11.88;;;;;;;-2.77;100.00;102890.59;5064118;28;20036;-76
2024/01/08 07:08:09;;;;;;;22.55;11.55;;;;;;;-2.73;100.00;102904.75;5061924;28;20032;-76
2024/01/08 07:10:35;;;;;;;23.83;12.43;;;;;;;-2.71;100.00;102905.78;5062851;28;20040;-77
2024/01/08 07:13:00;;;;;;;22.83;11.93;;;;;;;-2.72;100.00;102907.47;5063248;28;20036;-76
2024/01/08 07:15:46;;;;;;;23.30;12.27;;;;;;;-2.68;100.00;102906.06;5061932;28;20388;-77
2024/01/08 07:18:12;;;;;;;23.00;11.98;;;;;;;-2.72;100.00;102906.53;5061647;28;20396;-77
2024/01/08 07:20:38;;;;;;;23.17;12.15;;;;;;;-2.72;100.00;102907.47;5045293;28;20037;-77
2024/01/08 07:23:05;;;;;;;23.45;12.35;;;;;;;-2.69;100.00;102909.44;5062546;28;20047;-76
2024/01/08 07:25:31;;;;;;;23.75;12.65;;;;;;;-2.66;100.00;102907.13;5062430;28;20025;-77
2024/01/08 07:27:57;;;;;;;23.52;12.57;;;;;;;-2.61;100.00;102921.38;5063867;28;20490;-76
2024/01/08 07:30:22;;;;;;;23.30;12.05;;;;;;;-2.60;100.00;102918.03;5061235;28;20433;-76
2024/01/08 07:32:48;;;;;;;23.50;12.35;;;;;;;-2.56;100.00;102911.44;5054481;28;20129;-76
2024/01/08 07:35:13;;;;;;;24.77;14.38;;;;;;;-2.58;100.00;102918.16;5064521;28;20387;-76
2024/01/08 07:37:39;;;;;;;23.17;12.10;;;;;;;-2.56;100.00;102925.31;5044050;28;20085;-76
2024/01/08 07:40:05;;;;;;;23.02;12.13;;;;;;;-2.56;100.00;102922.72;5062594;28;20033;-77
2024/01/08 07:42:31;;;;;;;23.35;11.77;;;;;;;-2.53;100.00;102920.41;5063083;28;20384;-75
2024/01/08 07:44:56;;;;;;;24.17;12.32;;;;;;;-2.52;100.00;102934.25;5030584;28;20053;-77
2024/01/08 07:47:22;;;;;;;24.27;13.10;;;;;;;-2.51;100.00;102936.09;5056566;28;20057;-76
2024/01/08 07:49:47;;;;;;;23.58;12.25;;;;;;;-2.48;100.00;102938.94;5064116;28;20037;-75
2024/01/08 07:52:12;;;;;;;23.08;11.88;;;;;;;-2.48;100.00;102937.25;5061454;28;20369;-76
2024/01/08 07:54:38;;;;;;;22.17;11.32;;;;;;;-2.45;100.00;102936.63;5062916;28;20025;-77
2024/01/08 07:57:03;;;;;;;23.63;11.75;;;;;;;-2.42;100.00;102944.69;5062462;28;20063;-77
2024/01/08 07:59:29;;;;;;;31.25;19.63;;;;;;;-2.43;100.00;102934.19;5062159;28;20037;-77
2024/01/08 08:01:54;;;;;;;26.48;15.43;;;;;;;-2.43;100.00;102929.94;5063616;28;20502;-77
2024/01/08 08:04:20;;;;;;;26.48;15.40;;;;;;;-2.41;100.00;102932.66;5060497;28;20025;-77
2024/01/08 08:06:45;;;;;;;25.05;14.00;;;;;;;-2.40;100.00;102939.63;5064035;28;20024;-76
2024/01/08 08:09:11;;;;;;;22.65;11.45;;;;;;;-2.38;100.00;102938.13;5061164;28;20048;-77
2024/01/08 08:11:37;;;;;;;24.88;14.35;;;;;;;-2.39;100.00;102933.69;5063080;28;20036;-77
2024/01/08 08:14:02;;;;;;;22.80;11.35;;;;;;;-2.39;100.00;102937.19;5062649;28;20027;-76
2024/01/08 08:16:28;;;;;;;21.55;10.90;;;;;;;-2.37;100.00;102939.94;5061301;28;20033;-77
2024/01/08 08:18:54;;;;;;;24.88;12.00;;;;;;;-2.36;100.00;102933.97;5063827;28;20493;-77
2024/01/08 08:21:20;;;;;;;22.83;11.57;;;;;;;-2.26;100.00;102940.91;5062935;28;20115;-76
2024/01/08 08:23:45;;;;;;;24.58;15.73;;;;;;;-2.29;100.00;102947.63;5067568;28;20032;-77
2024/01/08 08:26:11;;;;;;;23.20;11.80;;;;;;;-2.23;100.00;102947.25;5058203;28;20039;-77
2024/01/08 08:28:36;;;;;;;22.35;11.48;;;;;;;-2.27;100.00;102947.78;5065605;28;20037;-77
2024/01/08 08:31:02;;;;;;;22.73;11.23;;;;;;;-2.24;100.00;102945.44;5065408;28;20075;-76
2024/01/08 08:33:28;;;;;;;22.60;11.73;;;;;;;-2.26;100.00;102948.66;5066485;28;20053;-75
2024/01/08 08:35:54;;;;;;;23.13;11.18;;;;;;;-2.21;100.00;102947.38;5051720;28;20108;-76
2024/01/08 08:38:19;;;;;;;22.30;10.65;;;;;;;-2.17;100.00;102945.22;5067420;28;20082;-77
2024/01/08 08:40:44;;;;;;;22.10;10.60;;;;;;;-2.16;100.00;102949.63;5064336;28;20048;-77
2024/01/08 08:43:10;;;;;;;20.55;9.88;;;;;;;-2.15;100.00;102948.84;5055884;28;20029;-77
2024/01/08 08:45:35;;;;;;;21.75;9.82;;;;;;;-2.15;100.00;102956.63;5047486;28;20123;-77
2024/01/08 08:48:00;;;;;;;23.92;14.57;;;;;;;-2.08;100.00;102954.56;5065188;28;20094;-77
2024/01/08 08:50:27;;;;;;;22.30;10.90;;;;;;;-2.08;100.00;102947.72;5066556;28;20450;-77
2024/01/08 08:52:52;;;;;;;21.35;9.98;;;;;;;-2.14;100.00;102949.75;5063980;28;20023;-77
2024/01/08 08:55:18;;;;;;;22.75;11.50;;;;;;;-2.17;100.00;102950.41;5067145;28;20024;-76
2024/01/08 08:57:43;;;;;;;21.45;10.10;;;;;;;-2.18;100.00;102953.75;5064150;28;20476;-76
2024/01/08 09:00:09;;;;;;;20.92;9.90;;;;;;;-2.16;100.00;102951.31;5065967;28;20051;-76
2024/01/08 09:02:34;;;;;;;20.88;9.55;;;;;;;-2.14;100.00;102960.13;5065210;28;20029;-76
2024/01/08 09:05:00;;;;;;;20.63;9.43;;;;;;;-2.16;100.00;102962.56;5064602;28;20028;-77
2024/01/08 09:07:26;;;;;;;21.17;9.60;;;;;;;-2.17;100.00;102960.78;5066898;28;20400;-77
2024/01/08 09:09:52;;;;;;;20.98;9.43;;;;;;;-2.12;100.00;102953.41;5063424;28;20366;-77
2024/01/08 09:12:18;;;;;;;21.00;9.48;;;;;;;-2.13;100.00;102960.25;5059451;28;20036;-76
2024/01/08 09:14:44;;;;;;;22.02;9.75;;;;;;;-2.13;100.00;102964.53;5066420;28;20028;-75
2024/01/08 09:17:09;;;;;;;21.33;9.65;;;;;;;-2.13;100.00;102961.94;5064348;28;20115;-75
2024/01/08 09:19:35;;;;;;;20.60;9.40;;;;;;;-2.13;100.00;102970.63;5065003;28;20495;-76
2024/01/08 09:22:00;;;;;;;21.08;9.48;;;;;;;-2.11;100.00;102961.31;5065709;28;20082;-77
2024/01/08 09:24:26;;;;;;;20.38;9.50;;;;;;;-2.08;100.00;102967.53;5051287;28;20029;-78
2024/01/08 09:26:51;;;;;;;20.42;9.13;;;;;;;-2.09;100.00;102965.75;5048770;28;20143;-78
2024/01/08 09:29:17;;;;;;;21.45;9.75;;;;;;;-2.09;100.00;102973.53;5045350;28;20697;-77
2024/01/08 09:31:42;;;;;;;20.27;9.27;;;;;;;-2.07;100.00;102974.56;5056877;28;20035;-75
2024/01/08 09:34:07;;;;;;;21.00;10.48;;;;;;;-2.06;100.00;102973.78;5057015;28;20033;-75
2024/01/08 09:36:33;;;;;;;21.38;10.40;;;;;;;-2.11;100.00;102978.56;5065027;28;20498;-75
2024/01/08 09:38:58;;;;;;;21.25;9.90;;;;;;;-2.07;100.00;102978.03;5063659;28;20041;-77
2024/01/08 09:41:24;;;;;;;21.17;10.10;;;;;;;-2.06;100.00;102984.16;5066165;28;20078;-78
2024/01/08 09:43:50;;;;;;;21.27;10.43;;;;;;;-2.09;100.00;102989.06;5062771;28;20037;-78
2024/01/08 09:46:24;;;;;;;25.52;14.27;;;;;;;-2.20;100.00;102983.84;5065910;28;20029;-76
2024/01/08 09:48:50;;;;;;;23.67;14.18;;;;;;;-2.25;100.00;102986.78;5062929;28;20056;-78
2024/01/08 09:51:16;;;;;;;23.60;13.80;;;;;;;-2.34;100.00;102995.53;5048828;28;20455;-77
2024/01/08 09:53:43;;;;;;;21.90;11.35;;;;;;;-2.35;100.00;102993.69;5058436;28;20116;-79
2024/01/08 09:56:13;;;;;;;23.58;13.15;;;;;;;-2.37;100.00;102992.66;5064975;28;20044;-78
2024/01/08 09:58:38;;;;;;;22.73;11.90;;;;;;;-2.20;100.00;102995.84;5063453;28;20029;-75
2024/01/08 10:01:04;;;;;;;23.52;11.90;;;;;;;-2.09;100.00;102999.44;5061043;28;20085;-78
2024/01/08 10:03:30;;;;;;;22.17;11.25;;;;;;;-2.00;100.00;103000.25;5055222;28;20112;-77
2024/01/08 10:05:56;;;;;;;21.63;11.18;;;;;;;-1.90;100.00;102992.53;5064069;28;20020;-75
2024/01/08 10:08:21;;;;;;;21.42;11.43;;;;;;;-1.89;100.00;102994.34;5062599;28;20139;-75
2024/01/08 10:10:47;;;;;;;21.60;11.00;;;;;;;-1.83;100.00;102994.00;5065014;28;20531;-76
2024/01/08 10:13:14;;;;;;;22.30;11.40;;;;;;;-1.79;100.00;102984.03;5031694;28;20072;-74
2024/01/08 10:15:46;;;;;;;21.52;10.65;;;;;;;-1.73;100.00;102995.69;5041016;28;20036;-74
2024/01/08 10:18:16;;;;;;;21.52;10.57;;;;;;;-1.70;100.00;102985.59;5062954;28;20032;-74
2024/01/08 10:20:43;;;;;;;21.13;10.68;;;;;;;-1.62;100.00;102985.50;5066360;28;20029;-74
2024/01/08 10:23:09;;;;;;;20.83;10.35;;;;;;;-1.53;100.00;102979.31;5063945;28;20056;-74
2024/01/08 10:25:36;;;;;;;20.75;10.30;;;;;;;-1.55;100.00;102983.47;5063947;28;20389;-74
2024/01/08 10:28:02;;;;;;;20.67;9.75;;;;;;;-1.59;100.00;102979.66;5062896;28;20021;-74
2024/01/08 10:30:28;;;;;;;21.13;9.95;;;;;;;-1.21;100.00;102983.78;5064851;28;20036;-75
2024/01/08 10:32:58;;;;;;;20.35;9.40;;;;;;;-0.74;100.00;102976.56;5062591;28;20045;-75
2024/01/08 10:35:25;;;;;;;20.00;9.40;;;;;;;-0.17;100.00;102978.69;5062269;28;20029;-76
2024/01/08 10:37:51;;;;;;;20.00;9.13;;;;;;;-0.02;100.00;102966.91;5057556;28;20508;-73
2024/01/08 10:40:17;;;;;;;20.95;9.50;;;;;;;0.21;100.00;102966.97;5064543;28;20055;-73
2024/01/08 10:42:44;;;;;;;20.85;9.30;;;;;;;-0.19;100.00;102968.16;5062146;28;20028;-74
2024/01/08 10:45:10;;;;;;;20.38;9.70;;;;;;;-0.61;100.00;102955.09;5063736;28;20021;-74
2024/01/08 10:47:37;;;;;;;20.35;9.43;;;;;;;-0.79;100.00;102955.38;5063724;28;20468;-74
2024/01/08 10:50:05;;;;;;;20.55;9.50;;;;;;;-0.90;100.00;102948.38;5063224;28;20040;-74
2024/01/08 10:52:33;;;;;;;19.98;9.10;;;;;;;-1.06;100.00;102952.25;5045243;28;20092;-76
2024/01/08 10:55:00;;;;;;;19.58;8.77;;;;;;;-0.05;100.00;102951.06;5057528;28;20365;-81
2024/01/08 10:57:59;;;;;;;19.83;8.70;;;;;;;0.70;100.00;102952.66;5065031;28;20491;-82